sensor_id;sensor_type;location;lat;lon;timestamp;temperature;humidity
53962;DHT22;39868;53.398;6.564;2023-09-19T00:00:18;18.30;80.50
53962;DHT22;39868;53.398;6.564;2023-09-19T00:02:54;18.20;80.50
53962;DHT22;39868;53.398;6.564;2023-09-19T00:05:22;18.20;80.40
53962;DHT22;39868;53.398;6.564;2023-09-19T00:07:51;18.20;80.40
53962;DHT22;39868;53.398;6.564;2023-09-19T00:10:21;18.10;80.40
53962;DHT22;39868;53.398;6.564;2023-09-19T00:12:51;18.10;80.40
53962;DHT22;39868;53.398;6.564;2023-09-19T00:15:22;18.10;80.30
53962;DHT22;39868;53.398;6.564;2023-09-19T00:17:51;18.00;80.20
53962;DHT22;39868;53.398;6.564;2023-09-19T00:20:19;18.00;80.20
53962;DHT22;39868;53.398;6.564;2023-09-19T00:22:49;18.00;80.20
53962;DHT22;39868;53.398;6.564;2023-09-19T00:25:19;18.00;80.30
53962;DHT22;39868;53.398;6.564;2023-09-19T00:27:47;17.90;80.20
53962;DHT22;39868;53.398;6.564;2023-09-19T00:30:17;17.90;80.20
53962;DHT22;39868;53.398;6.564;2023-09-19T00:32:48;17.90;80.20
53962;DHT22;39868;53.398;6.564;2023-09-19T00:35:15;17.80;80.20
53962;DHT22;39868;53.398;6.564;2023-09-19T00:37:43;17.80;80.20
53962;DHT22;39868;53.398;6.564;2023-09-19T00:40:10;17.80;80.30
53962;DHT22;39868;53.398;6.564;2023-09-19T00:42:43;17.80;80.30
53962;DHT22;39868;53.398;6.564;2023-09-19T00:45:10;17.80;80.30
53962;DHT22;39868;53.398;6.564;2023-09-19T00:47:39;17.80;80.30
53962;DHT22;39868;53.398;6.564;2023-09-19T00:50:08;17.70;80.30
53962;DHT22;39868;53.398;6.564;2023-09-19T00:52:35;17.70;80.30
53962;DHT22;39868;53.398;6.564;2023-09-19T00:55:07;17.70;80.40
53962;DHT22;39868;53.398;6.564;2023-09-19T00:57:35;17.70;80.40
53962;DHT22;39868;53.398;6.564;2023-09-19T01:00:04;17.70;80.40
53962;DHT22;39868;53.398;6.564;2023-09-19T01:02:35;17.70;80.40
53962;DHT22;39868;53.398;6.564;2023-09-19T01:05:03;17.70;80.40
53962;DHT22;39868;53.398;6.564;2023-09-19T01:07:34;17.70;80.40
53962;DHT22;39868;53.398;6.564;2023-09-19T01:10:02;17.60;80.40
53962;DHT22;39868;53.398;6.564;2023-09-19T01:15:21;17.60;80.40
53962;DHT22;39868;53.398;6.564;2023-09-19T01:17:57;17.60;80.40
53962;DHT22;39868;53.398;6.564;2023-09-19T01:25:33;17.60;80.40
53962;DHT22;39868;53.398;6.564;2023-09-19T01:30:39;17.60;80.40
53962;DHT22;39868;53.398;6.564;2023-09-19T01:33:10;17.60;80.40
53962;DHT22;39868;53.398;6.564;2023-09-19T01:35:42;17.50;80.40
53962;DHT22;39868;53.398;6.564;2023-09-19T01:38:09;17.50;80.40
53962;DHT22;39868;53.398;6.564;2023-09-19T01:40:41;17.50;80.40
53962;DHT22;39868;53.398;6.564;2023-09-19T01:45:54;17.50;80.40
53962;DHT22;39868;53.398;6.564;2023-09-19T01:51:08;17.50;80.40
53962;DHT22;39868;53.398;6.564;2023-09-19T01:56:37;17.50;80.30
53962;DHT22;39868;53.398;6.564;2023-09-19T01:59:08;17.50;80.30
53962;DHT22;39868;53.398;6.564;2023-09-19T02:01:38;17.50;80.30
53962;DHT22;39868;53.398;6.564;2023-09-19T02:04:07;17.50;80.20
53962;DHT22;39868;53.398;6.564;2023-09-19T02:06:34;17.40;80.20
53962;DHT22;39868;53.398;6.564;2023-09-19T02:09:01;17.50;80.20
53962;DHT22;39868;53.398;6.564;2023-09-19T02:11:30;17.40;80.10
53962;DHT22;39868;53.398;6.564;2023-09-19T02:13:58;17.40;80.00
53962;DHT22;39868;53.398;6.564;2023-09-19T02:16:26;17.40;80.00
53962;DHT22;39868;53.398;6.564;2023-09-19T02:18:53;17.40;80.00
53962;DHT22;39868;53.398;6.564;2023-09-19T02:21:20;17.30;79.90
53962;DHT22;39868;53.398;6.564;2023-09-19T02:23:48;17.30;79.90
53962;DHT22;39868;53.398;6.564;2023-09-19T02:26:15;17.30;79.90
53962;DHT22;39868;53.398;6.564;2023-09-19T02:28:43;17.20;79.80
53962;DHT22;39868;53.398;6.564;2023-09-19T02:31:10;17.20;79.80
53962;DHT22;39868;53.398;6.564;2023-09-19T02:33:37;17.20;79.80
53962;DHT22;39868;53.398;6.564;2023-09-19T02:36:05;17.20;79.80
53962;DHT22;39868;53.398;6.564;2023-09-19T02:38:33;17.20;80.30
53962;DHT22;39868;53.398;6.564;2023-09-19T02:41:00;17.10;79.70
53962;DHT22;39868;53.398;6.564;2023-09-19T02:43:28;17.10;79.80
53962;DHT22;39868;53.398;6.564;2023-09-19T02:45:55;17.10;79.80
53962;DHT22;39868;53.398;6.564;2023-09-19T02:48:24;17.10;79.80
53962;DHT22;39868;53.398;6.564;2023-09-19T02:50:52;17.00;79.80
53962;DHT22;39868;53.398;6.564;2023-09-19T02:53:19;17.00;79.80
53962;DHT22;39868;53.398;6.564;2023-09-19T02:55:47;17.00;79.70
53962;DHT22;39868;53.398;6.564;2023-09-19T02:58:15;17.00;79.70
53962;DHT22;39868;53.398;6.564;2023-09-19T03:00:42;16.90;79.70
53962;DHT22;39868;53.398;6.564;2023-09-19T03:03:15;17.00;79.70
53962;DHT22;39868;53.398;6.564;2023-09-19T03:05:46;16.90;79.60
53962;DHT22;39868;53.398;6.564;2023-09-19T03:08:16;16.90;79.60
53962;DHT22;39868;53.398;6.564;2023-09-19T03:10:46;16.90;79.60
53962;DHT22;39868;53.398;6.564;2023-09-19T03:13:15;16.90;79.60
53962;DHT22;39868;53.398;6.564;2023-09-19T03:15:43;16.90;79.60
53962;DHT22;39868;53.398;6.564;2023-09-19T03:18:22;16.80;79.60
53962;DHT22;39868;53.398;6.564;2023-09-19T03:20:54;16.80;79.50
53962;DHT22;39868;53.398;6.564;2023-09-19T03:23:22;16.80;79.60
53962;DHT22;39868;53.398;6.564;2023-09-19T03:25:50;16.80;79.60
53962;DHT22;39868;53.398;6.564;2023-09-19T03:28:17;16.80;79.70
53962;DHT22;39868;53.398;6.564;2023-09-19T03:30:45;16.70;79.70
53962;DHT22;39868;53.398;6.564;2023-09-19T03:33:12;16.70;79.80
53962;DHT22;39868;53.398;6.564;2023-09-19T03:35:41;16.70;80.40
53962;DHT22;39868;53.398;6.564;2023-09-19T03:38:08;16.70;79.80
53962;DHT22;39868;53.398;6.564;2023-09-19T03:40:35;16.70;79.80
53962;DHT22;39868;53.398;6.564;2023-09-19T03:43:04;16.70;79.90
53962;DHT22;39868;53.398;6.564;2023-09-19T03:45:33;16.70;79.80
53962;DHT22;39868;53.398;6.564;2023-09-19T03:48:01;16.70;79.90
53962;DHT22;39868;53.398;6.564;2023-09-19T03:50:28;16.70;79.90
53962;DHT22;39868;53.398;6.564;2023-09-19T03:52:56;16.70;79.90
53962;DHT22;39868;53.398;6.564;2023-09-19T03:55:24;16.70;79.90
53962;DHT22;39868;53.398;6.564;2023-09-19T03:57:51;16.70;79.90
53962;DHT22;39868;53.398;6.564;2023-09-19T04:00:20;16.70;79.90
53962;DHT22;39868;53.398;6.564;2023-09-19T04:02:48;16.70;79.90
53962;DHT22;39868;53.398;6.564;2023-09-19T04:05:16;16.70;79.80
53962;DHT22;39868;53.398;6.564;2023-09-19T04:07:45;16.70;79.80
53962;DHT22;39868;53.398;6.564;2023-09-19T04:10:13;16.70;79.80
53962;DHT22;39868;53.398;6.564;2023-09-19T04:12:51;16.70;79.80
53962;DHT22;39868;53.398;6.564;2023-09-19T04:15:21;16.70;79.80
53962;DHT22;39868;53.398;6.564;2023-09-19T04:17:54;16.60;79.70
53962;DHT22;39868;53.398;6.564;2023-09-19T04:20:21;16.60;79.70
53962;DHT22;39868;53.398;6.564;2023-09-19T04:22:52;16.60;79.60
53962;DHT22;39868;53.398;6.564;2023-09-19T04:25:19;16.60;79.60
53962;DHT22;39868;53.398;6.564;2023-09-19T04:27:49;16.60;79.70
53962;DHT22;39868;53.398;6.564;2023-09-19T04:30:17;16.50;79.60
53962;DHT22;39868;53.398;6.564;2023-09-19T04:32:44;16.50;79.60
53962;DHT22;39868;53.398;6.564;2023-09-19T04:35:11;16.50;79.60
53962;DHT22;39868;53.398;6.564;2023-09-19T04:37:39;16.50;79.60
53962;DHT22;39868;53.398;6.564;2023-09-19T04:40:10;16.50;79.60
53962;DHT22;39868;53.398;6.564;2023-09-19T04:42:41;16.50;79.70
53962;DHT22;39868;53.398;6.564;2023-09-19T04:45:09;16.40;79.70
53962;DHT22;39868;53.398;6.564;2023-09-19T04:47:37;16.40;80.30
53962;DHT22;39868;53.398;6.564;2023-09-19T04:50:07;16.40;79.70
53962;DHT22;39868;53.398;6.564;2023-09-19T04:52:35;16.40;79.70
53962;DHT22;39868;53.398;6.564;2023-09-19T04:55:02;16.40;79.70
53962;DHT22;39868;53.398;6.564;2023-09-19T04:57:29;16.40;79.70
53962;DHT22;39868;53.398;6.564;2023-09-19T04:59:58;16.40;79.80
53962;DHT22;39868;53.398;6.564;2023-09-19T05:02:28;16.40;79.80
53962;DHT22;39868;53.398;6.564;2023-09-19T05:04:57;16.40;79.80
53962;DHT22;39868;53.398;6.564;2023-09-19T05:07:26;16.40;79.80
53962;DHT22;39868;53.398;6.564;2023-09-19T05:09:53;16.40;79.80
53962;DHT22;39868;53.398;6.564;2023-09-19T05:12:20;16.40;79.90
53962;DHT22;39868;53.398;6.564;2023-09-19T05:14:48;16.40;79.90
53962;DHT22;39868;53.398;6.564;2023-09-19T05:17:15;16.40;79.90
53962;DHT22;39868;53.398;6.564;2023-09-19T05:19:44;16.40;80.00
53962;DHT22;39868;53.398;6.564;2023-09-19T05:22:13;16.40;80.00
53962;DHT22;39868;53.398;6.564;2023-09-19T05:24:40;16.40;80.00
53962;DHT22;39868;53.398;6.564;2023-09-19T05:27:08;16.40;80.10
53962;DHT22;39868;53.398;6.564;2023-09-19T05:29:35;16.40;80.10
53962;DHT22;39868;53.398;6.564;2023-09-19T05:32:02;16.40;80.10
53962;DHT22;39868;53.398;6.564;2023-09-19T05:34:30;16.40;80.10
53962;DHT22;39868;53.398;6.564;2023-09-19T05:36:58;16.40;80.10
53962;DHT22;39868;53.398;6.564;2023-09-19T05:39:25;16.50;80.20
53962;DHT22;39868;53.398;6.564;2023-09-19T05:41:52;16.50;80.30
53962;DHT22;39868;53.398;6.564;2023-09-19T05:44:19;16.50;80.30
53962;DHT22;39868;53.398;6.564;2023-09-19T05:46:46;16.50;80.30
53962;DHT22;39868;53.398;6.564;2023-09-19T05:49:15;16.50;80.30
53962;DHT22;39868;53.398;6.564;2023-09-19T05:51:42;16.50;80.30
53962;DHT22;39868;53.398;6.564;2023-09-19T05:54:10;16.50;80.30
53962;DHT22;39868;53.398;6.564;2023-09-19T05:56:38;16.60;80.40
53962;DHT22;39868;53.398;6.564;2023-09-19T05:59:05;16.60;80.40
53962;DHT22;39868;53.398;6.564;2023-09-19T06:01:33;16.60;80.40
53962;DHT22;39868;53.398;6.564;2023-09-19T06:04:01;16.60;80.40
53962;DHT22;39868;53.398;6.564;2023-09-19T06:06:29;16.70;80.50
53962;DHT22;39868;53.398;6.564;2023-09-19T06:08:57;16.70;80.50
53962;DHT22;39868;53.398;6.564;2023-09-19T06:11:24;16.70;80.50
53962;DHT22;39868;53.398;6.564;2023-09-19T06:13:53;16.80;80.60
53962;DHT22;39868;53.398;6.564;2023-09-19T06:16:20;16.70;80.50
53962;DHT22;39868;53.398;6.564;2023-09-19T06:18:48;16.80;80.60
53962;DHT22;39868;53.398;6.564;2023-09-19T06:21:19;16.80;80.60
53962;DHT22;39868;53.398;6.564;2023-09-19T06:23:46;16.80;80.60
53962;DHT22;39868;53.398;6.564;2023-09-19T06:26:14;16.80;80.60
53962;DHT22;39868;53.398;6.564;2023-09-19T06:28:41;16.80;80.60
53962;DHT22;39868;53.398;6.564;2023-09-19T06:31:09;16.90;80.60
53962;DHT22;39868;53.398;6.564;2023-09-19T06:33:37;16.90;80.60
53962;DHT22;39868;53.398;6.564;2023-09-19T06:36:07;17.00;80.60
53962;DHT22;39868;53.398;6.564;2023-09-19T06:38:36;17.00;80.60
53962;DHT22;39868;53.398;6.564;2023-09-19T06:41:04;17.00;80.60
53962;DHT22;39868;53.398;6.564;2023-09-19T06:43:31;17.00;80.60
53962;DHT22;39868;53.398;6.564;2023-09-19T06:46:01;17.10;80.60
53962;DHT22;39868;53.398;6.564;2023-09-19T06:48:29;17.10;80.60
53962;DHT22;39868;53.398;6.564;2023-09-19T06:50:56;17.10;80.50
53962;DHT22;39868;53.398;6.564;2023-09-19T06:53:25;17.20;80.60
53962;DHT22;39868;53.398;6.564;2023-09-19T06:55:52;17.20;80.50
53962;DHT22;39868;53.398;6.564;2023-09-19T06:58:20;17.20;80.50
53962;DHT22;39868;53.398;6.564;2023-09-19T07:00:47;17.30;80.50
53962;DHT22;39868;53.398;6.564;2023-09-19T07:03:16;17.30;80.50
53962;DHT22;39868;53.398;6.564;2023-09-19T07:05:47;17.40;80.50
53962;DHT22;39868;53.398;6.564;2023-09-19T07:08:18;17.40;80.40
53962;DHT22;39868;53.398;6.564;2023-09-19T07:10:46;17.40;80.40
53962;DHT22;39868;53.398;6.564;2023-09-19T07:13:16;17.40;80.40
53962;DHT22;39868;53.398;6.564;2023-09-19T07:15:44;17.50;80.40
53962;DHT22;39868;53.398;6.564;2023-09-19T07:18:14;17.50;80.40
53962;DHT22;39868;53.398;6.564;2023-09-19T07:20:44;17.60;80.50
53962;DHT22;39868;53.398;6.564;2023-09-19T07:23:21;17.60;80.40
53962;DHT22;39868;53.398;6.564;2023-09-19T07:25:56;17.60;80.40
53962;DHT22;39868;53.398;6.564;2023-09-19T07:28:24;17.70;80.40
53962;DHT22;39868;53.398;6.564;2023-09-19T07:30:51;17.70;80.40
53962;DHT22;39868;53.398;6.564;2023-09-19T07:33:19;17.70;80.40
53962;DHT22;39868;53.398;6.564;2023-09-19T07:35:47;17.80;80.40
53962;DHT22;39868;53.398;6.564;2023-09-19T07:38:14;17.80;80.40
53962;DHT22;39868;53.398;6.564;2023-09-19T07:40:42;17.90;80.50
53962;DHT22;39868;53.398;6.564;2023-09-19T07:43:09;17.90;80.50
53962;DHT22;39868;53.398;6.564;2023-09-19T07:45:36;17.90;80.40
53962;DHT22;39868;53.398;6.564;2023-09-19T07:48:04;18.00;80.50
53962;DHT22;39868;53.398;6.564;2023-09-19T07:50:33;18.10;80.50
53962;DHT22;39868;53.398;6.564;2023-09-19T07:53:03;18.10;80.50
53962;DHT22;39868;53.398;6.564;2023-09-19T07:55:32;18.20;80.50
53962;DHT22;39868;53.398;6.564;2023-09-19T07:58:01;18.20;80.50
53962;DHT22;39868;53.398;6.564;2023-09-19T08:00:31;18.20;80.40
53962;DHT22;39868;53.398;6.564;2023-09-19T08:03:02;18.30;80.40
53962;DHT22;39868;53.398;6.564;2023-09-19T08:05:42;18.30;80.30
53962;DHT22;39868;53.398;6.564;2023-09-19T08:08:10;18.40;80.30
53962;DHT22;39868;53.398;6.564;2023-09-19T08:10:40;18.40;80.20
53962;DHT22;39868;53.398;6.564;2023-09-19T08:13:09;18.40;80.10
53962;DHT22;39868;53.398;6.564;2023-09-19T08:15:43;18.50;80.10
53962;DHT22;39868;53.398;6.564;2023-09-19T08:18:15;18.50;80.10
53962;DHT22;39868;53.398;6.564;2023-09-19T08:20:43;18.50;80.00
53962;DHT22;39868;53.398;6.564;2023-09-19T08:23:13;18.60;80.10
53962;DHT22;39868;53.398;6.564;2023-09-19T08:25:40;18.60;80.00
53962;DHT22;39868;53.398;6.564;2023-09-19T08:28:07;18.70;80.00
53962;DHT22;39868;53.398;6.564;2023-09-19T08:30:46;18.70;80.60
53962;DHT22;39868;53.398;6.564;2023-09-19T08:33:13;18.80;80.10
53962;DHT22;39868;53.398;6.564;2023-09-19T08:35:42;18.80;80.10
53962;DHT22;39868;53.398;6.564;2023-09-19T08:38:10;18.80;80.00
53962;DHT22;39868;53.398;6.564;2023-09-19T08:40:38;18.90;80.00
53962;DHT22;39868;53.398;6.564;2023-09-19T08:43:07;19.00;80.00
53962;DHT22;39868;53.398;6.564;2023-09-19T08:45:34;19.00;79.90
53962;DHT22;39868;53.398;6.564;2023-09-19T08:50:36;19.10;79.80
53962;DHT22;39868;53.398;6.564;2023-09-19T08:53:10;19.20;79.80
53962;DHT22;39868;53.398;6.564;2023-09-19T08:55:39;19.20;79.70
53962;DHT22;39868;53.398;6.564;2023-09-19T08:58:10;19.20;79.60
53962;DHT22;39868;53.398;6.564;2023-09-19T09:00:37;19.30;79.60
53962;DHT22;39868;53.398;6.564;2023-09-19T09:03:10;19.40;79.50
53962;DHT22;39868;53.398;6.564;2023-09-19T09:05:41;19.40;79.30
53962;DHT22;39868;53.398;6.564;2023-09-19T09:08:09;19.40;79.30
53962;DHT22;39868;53.398;6.564;2023-09-19T09:10:37;19.40;79.30
53962;DHT22;39868;53.398;6.564;2023-09-19T09:13:05;19.50;79.20
53962;DHT22;39868;53.398;6.564;2023-09-19T09:15:35;19.50;79.10
53962;DHT22;39868;53.398;6.564;2023-09-19T09:18:04;19.50;79.10
53962;DHT22;39868;53.398;6.564;2023-09-19T09:20:32;19.50;79.00
53962;DHT22;39868;53.398;6.564;2023-09-19T09:22:59;19.60;79.00
53962;DHT22;39868;53.398;6.564;2023-09-19T09:28:13;19.70;78.90
53962;DHT22;39868;53.398;6.564;2023-09-19T09:30:46;19.70;78.70
53962;DHT22;39868;53.398;6.564;2023-09-19T09:33:14;19.70;78.60
53962;DHT22;39868;53.398;6.564;2023-09-19T09:35:56;19.70;78.60
53962;DHT22;39868;53.398;6.564;2023-09-19T09:38:27;19.80;78.50
53962;DHT22;39868;53.398;6.564;2023-09-19T09:40:59;19.80;78.50
53962;DHT22;39868;53.398;6.564;2023-09-19T09:43:34;19.80;78.50
53962;DHT22;39868;53.398;6.564;2023-09-19T09:46:14;19.90;78.90
53962;DHT22;39868;53.398;6.564;2023-09-19T09:51:51;20.00;78.40
53962;DHT22;39868;53.398;6.564;2023-09-19T09:54:28;20.00;78.30
53962;DHT22;39868;53.398;6.564;2023-09-19T09:57:01;20.00;78.20
53962;DHT22;39868;53.398;6.564;2023-09-19T09:59:51;20.10;78.20
53962;DHT22;39868;53.398;6.564;2023-09-19T10:02:26;20.10;78.10
53962;DHT22;39868;53.398;6.564;2023-09-19T10:05:03;20.10;78.00
53962;DHT22;39868;53.398;6.564;2023-09-19T10:07:41;20.10;77.90
53962;DHT22;39868;53.398;6.564;2023-09-19T10:10:10;20.20;78.00
53962;DHT22;39868;53.398;6.564;2023-09-19T10:12:48;20.20;78.10
53962;DHT22;39868;53.398;6.564;2023-09-19T10:15:18;20.30;78.10
53962;DHT22;39868;53.398;6.564;2023-09-19T10:17:48;20.30;78.00
53962;DHT22;39868;53.398;6.564;2023-09-19T10:20:16;20.30;78.00
53962;DHT22;39868;53.398;6.564;2023-09-19T10:23:10;20.40;77.80
53962;DHT22;39868;53.398;6.564;2023-09-19T10:25:43;20.40;77.70
53962;DHT22;39868;53.398;6.564;2023-09-19T10:28:13;20.40;77.70
53962;DHT22;39868;53.398;6.564;2023-09-19T10:30:41;20.40;77.70
53962;DHT22;39868;53.398;6.564;2023-09-19T10:33:13;20.50;77.60
53962;DHT22;39868;53.398;6.564;2023-09-19T10:35:43;20.50;77.50
53962;DHT22;39868;53.398;6.564;2023-09-19T10:38:10;20.60;77.00
53962;DHT22;39868;53.398;6.564;2023-09-19T10:40:38;20.60;76.90
53962;DHT22;39868;53.398;6.564;2023-09-19T10:43:15;20.60;76.70
53962;DHT22;39868;53.398;6.564;2023-09-19T10:45:44;20.70;76.90
53962;DHT22;39868;53.398;6.564;2023-09-19T10:48:15;20.70;77.00
53962;DHT22;39868;53.398;6.564;2023-09-19T10:50:46;20.70;76.70
53962;DHT22;39868;53.398;6.564;2023-09-19T10:53:16;20.80;77.20
53962;DHT22;39868;53.398;6.564;2023-09-19T10:55:48;20.80;76.50
53962;DHT22;39868;53.398;6.564;2023-09-19T10:58:26;20.80;76.10
53962;DHT22;39868;53.398;6.564;2023-09-19T11:00:56;20.90;76.10
53962;DHT22;39868;53.398;6.564;2023-09-19T11:03:24;20.90;76.00
53962;DHT22;39868;53.398;6.564;2023-09-19T11:06:01;20.90;75.00
53962;DHT22;39868;53.398;6.564;2023-09-19T11:09:18;21.00;75.20
53962;DHT22;39868;53.398;6.564;2023-09-19T11:11:39;21.00;75.40
53962;DHT22;39868;53.398;6.564;2023-09-19T11:22:20;21.30;75.00
53962;DHT22;39868;53.398;6.564;2023-09-19T11:24:49;21.30;74.80
53962;DHT22;39868;53.398;6.564;2023-09-19T11:27:18;21.30;74.50
53962;DHT22;39868;53.398;6.564;2023-09-19T11:29:47;21.30;74.00
53962;DHT22;39868;53.398;6.564;2023-09-19T11:32:16;21.30;74.40
53962;DHT22;39868;53.398;6.564;2023-09-19T11:34:44;21.20;74.20
53962;DHT22;39868;53.398;6.564;2023-09-19T11:40:26;21.20;73.80
53962;DHT22;39868;53.398;6.564;2023-09-19T11:42:41;21.20;74.00
53962;DHT22;39868;53.398;6.564;2023-09-19T11:48:01;21.20;74.10
53962;DHT22;39868;53.398;6.564;2023-09-19T11:50:29;21.20;74.00
53962;DHT22;39868;53.398;6.564;2023-09-19T11:52:59;21.20;73.90
53962;DHT22;39868;53.398;6.564;2023-09-19T11:55:28;21.10;73.80
53962;DHT22;39868;53.398;6.564;2023-09-19T11:57:59;21.10;73.90
53962;DHT22;39868;53.398;6.564;2023-09-19T12:00:27;21.10;73.40
53962;DHT22;39868;53.398;6.564;2023-09-19T12:02:55;21.20;73.60
53962;DHT22;39868;53.398;6.564;2023-09-19T12:05:29;21.10;73.50
53962;DHT22;39868;53.398;6.564;2023-09-19T12:07:56;21.10;73.40
53962;DHT22;39868;53.398;6.564;2023-09-19T12:10:24;21.10;73.60
53962;DHT22;39868;53.398;6.564;2023-09-19T12:12:51;21.10;73.60
53962;DHT22;39868;53.398;6.564;2023-09-19T12:15:23;21.10;73.30
53962;DHT22;39868;53.398;6.564;2023-09-19T12:17:55;21.10;73.10
53962;DHT22;39868;53.398;6.564;2023-09-19T12:20:22;21.10;73.00
53962;DHT22;39868;53.398;6.564;2023-09-19T12:22:50;21.00;72.90
53962;DHT22;39868;53.398;6.564;2023-09-19T12:25:17;21.00;73.10
53962;DHT22;39868;53.398;6.564;2023-09-19T12:27:47;21.00;73.30
53962;DHT22;39868;53.398;6.564;2023-09-19T12:30:16;21.00;73.50
53962;DHT22;39868;53.398;6.564;2023-09-19T12:32:54;21.00;73.30
53962;DHT22;39868;53.398;6.564;2023-09-19T12:37:57;20.90;73.50
53962;DHT22;39868;53.398;6.564;2023-09-19T12:40:25;20.80;73.70
53962;DHT22;39868;53.398;6.564;2023-09-19T12:42:56;20.80;74.10
53962;DHT22;39868;53.398;6.564;2023-09-19T12:45:25;20.80;74.30
53962;DHT22;39868;53.398;6.564;2023-09-19T12:50:58;20.70;74.70
53962;DHT22;39868;53.398;6.564;2023-09-19T12:53:26;20.70;75.00
53962;DHT22;39868;53.398;6.564;2023-09-19T12:56:03;20.70;75.20
53962;DHT22;39868;53.398;6.564;2023-09-19T13:01:22;20.60;75.50
53962;DHT22;39868;53.398;6.564;2023-09-19T13:06:39;20.60;75.80
53962;DHT22;39868;53.398;6.564;2023-09-19T13:09:10;20.60;75.80
53962;DHT22;39868;53.398;6.564;2023-09-19T13:11:38;20.60;75.80
53962;DHT22;39868;53.398;6.564;2023-09-19T13:14:26;20.60;75.80
53962;DHT22;39868;53.398;6.564;2023-09-19T13:17:05;20.60;75.80
53962;DHT22;39868;53.398;6.564;2023-09-19T13:19:49;20.60;75.70
53962;DHT22;39868;53.398;6.564;2023-09-19T13:25:21;20.70;75.70
53962;DHT22;39868;53.398;6.564;2023-09-19T13:27:53;20.70;75.90
53962;DHT22;39868;53.398;6.564;2023-09-19T13:30:25;20.70;76.00
53962;DHT22;39868;53.398;6.564;2023-09-19T13:32:53;20.60;76.30
53962;DHT22;39868;53.398;6.564;2023-09-19T13:35:31;20.60;76.40
53962;DHT22;39868;53.398;6.564;2023-09-19T13:37:59;20.60;76.50
53962;DHT22;39868;53.398;6.564;2023-09-19T13:40:27;20.60;76.70
53962;DHT22;39868;53.398;6.564;2023-09-19T13:42:57;20.60;76.80
53962;DHT22;39868;53.398;6.564;2023-09-19T13:45:24;20.60;76.70
53962;DHT22;39868;53.398;6.564;2023-09-19T13:47:54;20.60;77.40
53962;DHT22;39868;53.398;6.564;2023-09-19T13:50:21;20.60;76.80
53962;DHT22;39868;53.398;6.564;2023-09-19T13:52:51;20.60;76.80
53962;DHT22;39868;53.398;6.564;2023-09-19T13:55:18;20.60;76.90
53962;DHT22;39868;53.398;6.564;2023-09-19T13:57:48;20.50;76.90
53962;DHT22;39868;53.398;6.564;2023-09-19T14:00:21;20.50;76.90
53962;DHT22;39868;53.398;6.564;2023-09-19T14:02:49;20.50;76.90
53962;DHT22;39868;53.398;6.564;2023-09-19T14:05:18;20.50;76.90
53962;DHT22;39868;53.398;6.564;2023-09-19T14:07:47;20.50;77.00
53962;DHT22;39868;53.398;6.564;2023-09-19T14:10:15;20.60;77.00
53962;DHT22;39868;53.398;6.564;2023-09-19T14:12:44;20.60;77.00
53962;DHT22;39868;53.398;6.564;2023-09-19T14:15:11;20.70;77.00
53962;DHT22;39868;53.398;6.564;2023-09-19T14:17:39;20.70;76.90
53962;DHT22;39868;53.398;6.564;2023-09-19T14:20:12;20.80;76.90
53962;DHT22;39868;53.398;6.564;2023-09-19T14:22:40;20.90;77.00
53962;DHT22;39868;53.398;6.564;2023-09-19T14:25:08;20.90;76.90
53962;DHT22;39868;53.398;6.564;2023-09-19T14:27:36;20.90;76.80
53962;DHT22;39868;53.398;6.564;2023-09-19T14:30:04;21.00;76.70
53962;DHT22;39868;53.398;6.564;2023-09-19T14:32:31;21.00;76.50
53962;DHT22;39868;53.398;6.564;2023-09-19T14:34:58;21.10;76.40
53962;DHT22;39868;53.398;6.564;2023-09-19T14:37:25;21.10;76.10
53962;DHT22;39868;53.398;6.564;2023-09-19T14:39:54;21.10;76.10
53962;DHT22;39868;53.398;6.564;2023-09-19T14:42:22;21.00;76.00
53962;DHT22;39868;53.398;6.564;2023-09-19T14:44:49;21.00;75.90
53962;DHT22;39868;53.398;6.564;2023-09-19T14:47:17;21.00;75.90
53962;DHT22;39868;53.398;6.564;2023-09-19T14:49:47;21.00;76.60
53962;DHT22;39868;53.398;6.564;2023-09-19T14:52:14;21.00;76.10
53962;DHT22;39868;53.398;6.564;2023-09-19T14:54:43;21.00;76.10
53962;DHT22;39868;53.398;6.564;2023-09-19T14:57:10;20.90;76.20
53962;DHT22;39868;53.398;6.564;2023-09-19T14:59:38;21.00;76.30
53962;DHT22;39868;53.398;6.564;2023-09-19T15:02:05;20.90;76.50
53962;DHT22;39868;53.398;6.564;2023-09-19T15:04:33;20.90;76.60
53962;DHT22;39868;53.398;6.564;2023-09-19T15:07:03;20.80;76.60
53962;DHT22;39868;53.398;6.564;2023-09-19T15:09:31;20.80;76.80
53962;DHT22;39868;53.398;6.564;2023-09-19T15:12:00;20.70;76.80
53962;DHT22;39868;53.398;6.564;2023-09-19T15:14:27;20.70;76.90
53962;DHT22;39868;53.398;6.564;2023-09-19T15:16:56;20.60;77.00
53962;DHT22;39868;53.398;6.564;2023-09-19T15:19:24;20.60;77.10
53962;DHT22;39868;53.398;6.564;2023-09-19T15:21:51;20.60;77.30
53962;DHT22;39868;53.398;6.564;2023-09-19T15:24:19;20.50;77.50
53962;DHT22;39868;53.398;6.564;2023-09-19T15:26:47;20.50;77.60
53962;DHT22;39868;53.398;6.564;2023-09-19T15:29:14;20.40;77.60
53962;DHT22;39868;53.398;6.564;2023-09-19T15:31:43;20.40;77.80
53962;DHT22;39868;53.398;6.564;2023-09-19T15:34:10;20.30;77.80
53962;DHT22;39868;53.398;6.564;2023-09-19T15:36:41;20.30;78.10
53962;DHT22;39868;53.398;6.564;2023-09-19T15:39:09;20.30;78.20
53962;DHT22;39868;53.398;6.564;2023-09-19T15:41:38;20.20;78.30
53962;DHT22;39868;53.398;6.564;2023-09-19T15:44:13;20.20;78.80
53962;DHT22;39868;53.398;6.564;2023-09-19T15:46:41;20.20;78.90
53962;DHT22;39868;53.398;6.564;2023-09-19T15:49:08;20.20;79.10
53962;DHT22;39868;53.398;6.564;2023-09-19T15:51:35;20.10;79.30
53962;DHT22;39868;53.398;6.564;2023-09-19T15:54:10;20.10;79.30
53962;DHT22;39868;53.398;6.564;2023-09-19T15:56:37;20.10;79.30
53962;DHT22;39868;53.398;6.564;2023-09-19T15:59:05;20.10;79.60
53962;DHT22;39868;53.398;6.564;2023-09-19T16:01:32;20.00;79.60
53962;DHT22;39868;53.398;6.564;2023-09-19T16:03:59;20.00;79.80
53962;DHT22;39868;53.398;6.564;2023-09-19T16:06:28;20.00;79.80
53962;DHT22;39868;53.398;6.564;2023-09-19T16:08:56;20.00;79.70
53962;DHT22;39868;53.398;6.564;2023-09-19T16:11:26;19.90;79.80
53962;DHT22;39868;53.398;6.564;2023-09-19T16:13:54;19.90;80.00
53962;DHT22;39868;53.398;6.564;2023-09-19T16:16:22;19.90;80.00
53962;DHT22;39868;53.398;6.564;2023-09-19T16:18:53;19.90;80.20
53962;DHT22;39868;53.398;6.564;2023-09-19T16:21:33;19.90;80.20
53962;DHT22;39868;53.398;6.564;2023-09-19T16:24:02;19.90;80.30
53962;DHT22;39868;53.398;6.564;2023-09-19T16:26:32;19.90;80.50
53962;DHT22;39868;53.398;6.564;2023-09-19T16:28:59;19.90;80.50
53962;DHT22;39868;53.398;6.564;2023-09-19T16:31:30;19.80;80.50
53962;DHT22;39868;53.398;6.564;2023-09-19T16:34:00;19.90;80.70
53962;DHT22;39868;53.398;6.564;2023-09-19T16:36:28;19.80;80.70
53962;DHT22;39868;53.398;6.564;2023-09-19T16:38:55;19.80;80.70